Time;durP1;ratioP1;P1;durP2;ratioP2;P2;SDS_P1;SDS_P2;PMS_P1;PMS_P2;Temp;Humidity;BMP_temperature;BMP_pressure;BME280_temperature;BME280_humidity;BME280_pressure;Samples;Min_cycle;Max_cycle;Signal;HPM_P1;HPM_P2
2022/04/21 00:00:40;;;;;;;6.57;3.33;;;;;;;10.57;50.44;99370.00;1088067;54;20805;-80
2022/04/21 00:01:42;;;;;;;7.13;3.38;;;;;;;10.54;50.64;99377.50;1088079;54;20035;-79
2022/04/21 00:02:46;;;;;;;5.05;3.40;;;;;;;10.51;50.82;99372.47;1088154;54;20092;-79
2022/04/21 00:03:48;;;;;;;6.22;3.80;;;;;;;10.50;51.07;99370.78;1088140;54;20034;-79
2022/04/21 00:04:54;;;;;;;6.40;4.47;;;;;;;10.29;51.58;99377.38;1089025;46;20035;-81
2022/04/21 00:05:58;;;;;;;7.25;4.20;;;;;;;10.26;51.91;99375.00;1088329;54;20088;-81
2022/04/21 00:07:00;;;;;;;7.10;4.28;;;;;;;10.25;51.49;99368.00;1090199;46;20045;-82
2022/04/21 00:08:06;;;;;;;6.93;3.72;;;;;;;10.29;51.67;99359.50;1094358;39;20530;-79
2022/04/21 00:09:07;;;;;;;13.77;4.22;;;;;;;10.36;51.32;99369.53;1087643;54;21011;-80
2022/04/21 00:10:14;;;;;;;7.10;4.13;;;;;;;10.31;51.48;99367.34;1087868;54;20031;-80
2022/04/21 00:11:16;;;;;;;6.47;4.25;;;;;;;10.26;51.61;99369.66;1088098;54;20038;-79
2022/04/21 00:12:23;;;;;;;6.13;3.85;;;;;;;10.22;51.57;99368.31;1088292;54;20030;-82
2022/04/21 00:13:27;;;;;;;6.82;3.97;;;;;;;10.21;51.71;99366.63;1088379;54;20018;-83
2022/04/21 00:14:30;;;;;;;5.60;4.00;;;;;;;10.21;51.71;99367.47;1088404;54;20022;-83
2022/04/21 00:15:35;;;;;;;5.03;3.72;;;;;;;10.21;51.78;99358.59;1089322;39;20531;-81
2022/04/21 00:16:36;;;;;;;5.30;4.00;;;;;;;10.21;51.56;99361.28;1088118;54;20026;-81
2022/04/21 00:17:42;;;;;;;7.68;4.28;;;;;;;10.22;51.97;99373.66;1088177;54;20034;-81
2022/04/21 00:18:46;;;;;;;7.63;4.38;;;;;;;10.22;51.56;99363.81;1088211;54;20019;-81
2022/04/21 00:19:50;;;;;;;6.35;4.00;;;;;;;10.27;51.77;99360.66;1088234;54;20022;-79
2022/04/21 00:20:54;;;;;;;7.32;4.32;;;;;;;10.28;51.55;99357.81;1088241;54;20034;-81
2022/04/21 00:23:29;;;;;;;6.00;4.15;;;;;;;10.14;51.99;99356.59;1088174;54;20055;-80
2022/04/21 00:24:30;;;;;;;6.25;3.60;;;;;;;10.22;51.51;99357.63;1088206;54;20038;-82
2022/04/21 00:25:37;;;;;;;5.10;3.42;;;;;;;10.23;51.93;99359.28;1087878;54;20094;-80
2022/04/21 00:26:39;;;;;;;6.20;3.90;;;;;;;10.22;51.75;99357.63;1087771;54;20749;-80
2022/04/21 00:27:44;;;;;;;6.30;3.72;;;;;;;10.24;51.79;99355.63;1090597;46;20695;-79
2022/04/21 00:28:48;;;;;;;5.55;3.72;;;;;;;10.17;51.91;99365.28;1088154;54;20018;-79
2022/04/21 00:29:50;;;;;;;5.97;3.67;;;;;;;10.17;51.87;99360.75;1088125;54;20054;-81
2022/04/21 00:30:54;;;;;;;6.32;3.45;;;;;;;10.23;51.59;99356.63;1088886;39;20528;-81
2022/04/21 00:31:56;;;;;;;4.80;3.10;;;;;;;10.27;51.67;99360.66;1088151;54;20037;-81
2022/04/21 00:33:00;;;;;;;5.07;3.38;;;;;;;10.24;51.67;99355.63;1088170;54;20034;-82
2022/04/21 00:34:02;;;;;;;5.15;3.50;;;;;;;10.30;51.46;99358.50;1088212;54;20090;-80
2022/04/21 00:35:08;;;;;;;4.53;2.90;;;;;;;10.36;51.16;99361.53;1089686;39;20610;-81
2022/04/21 00:36:12;;;;;;;7.50;3.17;;;;;;;10.38;51.11;99363.09;1088055;54;20080;-80
2022/04/21 00:37:15;;;;;;;4.82;3.15;;;;;;;10.40;51.24;99361.06;1088340;54;20034;-82
2022/04/21 00:38:19;;;;;;;5.32;3.00;;;;;;;10.42;51.12;99361.75;1088349;54;20033;-82
2022/04/21 00:39:21;;;;;;;4.97;3.00;;;;;;;10.44;50.83;99357.09;1088272;54;20026;-82
2022/04/21 00:40:27;;;;;;;5.40;3.17;;;;;;;10.41;50.91;99359.25;1088225;54;20058;-82
2022/04/21 00:41:34;;;;;;;4.82;3.15;;;;;;;10.37;51.21;99357.84;1088104;54;20034;-80
2022/04/21 00:42:35;;;;;;;5.75;2.92;;;;;;;10.39;51.26;99364.75;1089307;39;20831;-80
2022/04/21 00:43:39;;;;;;;9.27;3.78;;;;;;;10.38;51.25;99357.75;1088068;54;20667;-82
2022/04/21 00:44:41;;;;;;;5.93;3.03;;;;;;;10.30;51.29;99368.34;1090065;47;20658;-80
2022/04/21 00:45:47;;;;;;;7.68;3.97;;;;;;;10.27;51.59;99358.81;1088265;54;20034;-81
2022/04/21 00:46:49;;;;;;;6.80;3.55;;;;;;;10.18;51.87;99353.59;1088083;54;20765;-80
2022/04/21 00:47:55;;;;;;;8.20;3.83;;;;;;;10.08;52.32;99356.38;1088626;39;20677;-81
2022/04/21 00:48:57;;;;;;;6.72;3.83;;;;;;;10.02;52.55;99360.50;1088163;54;20046;-81
2022/04/21 00:50:01;;;;;;;6.32;4.18;;;;;;;9.92;52.54;99360.63;1088196;54;20037;-82
2022/04/21 00:51:05;;;;;;;6.30;4.03;;;;;;;9.91;52.82;99358.97;1088153;54;20038;-82
2022/04/21 00:52:07;;;;;;;8.02;4.35;;;;;;;9.89;52.94;99362.78;1088245;54;20030;-81
2022/04/21 00:53:12;;;;;;;5.93;4.03;;;;;;;9.83;53.31;99357.06;1088165;54;20041;-80
2022/04/21 00:54:13;;;;;;;6.63;4.50;;;;;;;9.80;53.14;99354.72;1088085;54;20034;-80
2022/04/21 00:55:18;;;;;;;7.35;4.50;;;;;;;9.71;53.51;99349.47;1088113;54;20054;-80
2022/04/21 00:56:19;;;;;;;6.63;4.35;;;;;;;9.71;53.78;99355.66;1088002;54;20777;-79
2022/04/21 00:57:26;;;;;;;5.35;3.80;;;;;;;9.75;53.48;99354.34;1088068;54;20037;-79
2022/04/21 00:58:29;;;;;;;5.45;3.80;;;;;;;9.67;53.59;99359.63;1087811;54;20027;-80
2022/04/21 00:59:35;;;;;;;5.97;3.85;;;;;;;9.70;53.72;99356.66;1087717;54;20034;-80
2022/04/21 01:00:37;;;;;;;5.65;3.80;;;;;;;9.69;53.69;99354.97;1092156;47;20303;-79
2022/04/21 01:03:00;;;;;;;7.80;5.03;;;;;;;9.63;53.79;99355.59;1088405;54;20027;-80
2022/04/21 01:04:01;;;;;;;7.10;4.40;;;;;;;9.68;53.74;99355.97;1088428;54;20041;-81
2022/04/21 01:05:04;;;;;;;6.85;4.07;;;;;;;9.65;53.71;99350.94;1088589;54;20757;-80
2022/04/21 01:06:09;;;;;;;7.13;4.32;;;;;;;9.66;53.76;99352.59;1088611;54;20034;-83
2022/04/21 01:07:12;;;;;;;7.60;4.55;;;;;;;9.68;53.58;99353.28;1088742;54;20015;-81
2022/04/21 01:08:17;;;;;;;7.32;5.15;;;;;;;9.66;53.77;99357.94;1088831;54;20025;-80
2022/04/21 01:09:19;;;;;;;6.35;4.50;;;;;;;9.71;53.75;99354.81;1088687;54;20022;-80
2022/04/21 01:10:27;;;;;;;5.82;4.10;;;;;;;9.76;53.43;99352.53;1088676;54;20023;-81
2022/04/21 01:11:30;;;;;;;7.75;4.47;;;;;;;9.68;53.69;99350.63;1088612;54;20022;-81
2022/04/21 01:12:39;;;;;;;6.13;4.40;;;;;;;9.69;53.64;99344.31;1088585;54;20030;-80
2022/04/21 01:13:40;;;;;;;6.50;4.45;;;;;;;9.63;53.69;99352.94;1088538;54;20022;-79
2022/04/21 01:14:46;;;;;;;7.32;4.50;;;;;;;9.63;53.94;99350.28;1091338;46;20018;-80
2022/04/21 01:15:50;;;;;;;6.03;4.57;;;;;;;9.67;53.60;99356.97;1088068;54;20038;-79
2022/04/21 01:16:52;;;;;;;7.35;4.47;;;;;;;9.64;53.70;99346.59;1088394;54;20038;-81
2022/04/21 01:17:58;;;;;;;7.45;4.47;;;;;;;9.63;53.95;99345.75;1088354;54;20046;-82
2022/04/21 01:18:59;;;;;;;7.53;4.82;;;;;;;9.62;53.82;99346.75;1088421;54;20042;-81
2022/04/21 01:20:05;;;;;;;9.07;4.78;;;;;;;9.57;54.38;99354.41;1088475;54;20018;-82
2022/04/21 01:21:09;;;;;;;6.43;4.30;;;;;;;9.61;54.03;99353.06;1091537;39;20606;-80
2022/04/21 01:22:14;;;;;;;7.80;4.55;;;;;;;9.58;54.33;99355.22;1088097;54;20049;-81
2022/04/21 01:23:18;;;;;;;6.97;4.90;;;;;;;9.56;54.14;99355.38;1088043;54;20035;-81
2022/04/21 01:24:19;;;;;;;6.32;4.60;;;;;;;9.60;53.95;99353.25;1088040;54;20039;-79
2022/04/21 01:25:24;;;;;;;7.43;5.13;;;;;;;9.57;54.34;99351.72;1088069;54;20042;-80
2022/04/21 01:26:28;;;;;;;5.72;4.32;;;;;;;9.61;53.91;99354.91;1087964;54;20030;-82
2022/04/21 01:27:37;;;;;;;7.22;4.50;;;;;;;9.52;54.43;99351.34;1088222;54;20054;-80
2022/04/21 01:28:39;;;;;;;7.78;5.05;;;;;;;9.54;54.48;99357.38;1088441;54;20050;-81
2022/04/21 01:29:44;;;;;;;5.72;4.20;;;;;;;9.51;54.52;99350.50;1088383;54;20027;-81
2022/04/21 01:30:48;;;;;;;6.75;4.32;;;;;;;9.54;54.56;99356.53;1088398;54;20015;-79
2022/04/21 01:31:50;;;;;;;9.57;5.20;;;;;;;9.49;54.47;99352.50;1088345;54;20034;-80
2022/04/21 01:32:54;;;;;;;9.93;4.53;;;;;;;9.47;54.49;99346.47;1088299;54;20018;-80
2022/04/21 01:33:56;;;;;;;6.72;4.38;;;;;;;9.59;54.21;99348.91;1088209;54;20030;-80
2022/04/21 01:35:01;;;;;;;9.00;4.25;;;;;;;9.60;54.15;99347.91;1089885;39;21082;-81
2022/04/21 01:36:02;;;;;;;7.15;4.00;;;;;;;9.63;54.22;99358.28;1089145;39;20546;-81
2022/04/21 01:41:14;;;;;;;7.13;4.05;;;;;;;9.66;53.53;99352.59;1088377;54;20041;-81
2022/04/21 01:42:18;;;;;;;6.13;3.63;;;;;;;9.64;53.84;99351.91;1088330;54;20014;-80
2022/04/21 01:43:22;;;;;;;5.72;3.83;;;;;;;9.64;53.91;99344.78;1088262;54;20054;-81
2022/04/21 01:44:23;;;;;;;6.10;3.83;;;;;;;9.68;53.79;99355.97;1088309;54;20819;-80
2022/04/21 01:45:28;;;;;;;5.75;3.53;;;;;;;9.69;53.69;99346.97;1088384;54;20030;-80
2022/04/21 01:46:32;;;;;;;5.65;3.50;;;;;;;9.69;53.40;99346.97;1088715;46;20090;-80
2022/04/21 01:47:34;;;;;;;4.78;3.40;;;;;;;9.65;53.86;99351.78;1088357;54;20023;-80
2022/04/21 01:48:39;;;;;;;4.95;3.58;;;;;;;9.73;53.49;99352.81;1089806;46;20015;-80
2022/04/21 01:49:40;;;;;;;5.15;3.28;;;;;;;9.72;53.35;99346.66;1088578;54;20020;-79
2022/04/21 01:50:45;;;;;;;6.05;3.20;;;;;;;9.74;53.30;99347.31;1088422;54;20753;-80
2022/04/21 01:51:47;;;;;;;5.72;3.63;;;;;;;9.73;53.61;99350.97;1088614;47;20018;-80
2022/04/21 01:53:00;;;;;;;5.70;3.70;;;;;;;9.71;53.61;99346.81;1088483;54;20018;-80
2022/04/21 01:54:02;;;;;;;6.38;3.80;;;;;;;9.67;53.63;99347.13;1088579;54;20041;-81
2022/04/21 01:55:08;;;;;;;5.30;3.30;;;;;;;9.71;53.64;99341.47;1088581;54;20022;-81
2022/04/21 01:56:13;;;;;;;5.63;3.50;;;;;;;9.65;54.01;99350.94;1088495;54;20019;-80
2022/04/21 01:57:15;;;;;;;5.88;3.45;;;;;;;9.67;53.90;99351.63;1089082;46;20034;-80
2022/04/21 01:58:19;;;;;;;5.35;3.75;;;;;;;9.63;54.22;99344.94;1088583;54;20014;-81
2022/04/21 01:59:23;;;;;;;6.03;3.70;;;;;;;9.66;54.09;99341.94;1088535;54;20772;-81
2022/04/21 02:00:27;;;;;;;5.65;3.65;;;;;;;9.67;53.80;99338.28;1088547;54;20074;-80
2022/04/21 02:01:29;;;;;;;6.80;3.90;;;;;;;9.60;54.12;99342.56;1089829;39;20680;-81
2022/04/21 02:02:33;;;;;;;5.30;3.47;;;;;;;9.62;54.14;99346.75;1088270;54;20034;-81
2022/04/21 02:03:37;;;;;;;5.07;3.40;;;;;;;9.60;54.16;99338.06;1088350;54;20030;-80
2022/04/21 02:04:39;;;;;;;7.05;3.75;;;;;;;9.63;54.11;99336.94;1087979;54;20086;-80
2022/04/21 02:05:44;;;;;;;5.30;3.75;;;;;;;9.61;54.10;99334.41;1088146;46;20042;-81
2022/04/21 02:06:45;;;;;;;8.25;4.15;;;;;;;9.54;54.19;99343.19;1088256;54;20042;-79
2022/04/21 02:07:50;;;;;;;5.05;3.55;;;;;;;9.55;54.22;99332.34;1088002;54;20038;-80
2022/04/21 02:08:55;;;;;;;6.63;4.10;;;;;;;9.54;54.50;99329.84;1090596;39;20651;-80
2022/04/21 02:09:59;;;;;;;5.75;3.90;;;;;;;9.56;54.25;99335.84;1088287;54;20049;-81
2022/04/21 02:11:01;;;;;;;5.13;3.85;;;;;;;9.52;54.17;99332.66;1088248;54;20025;-81
2022/04/21 02:12:07;;;;;;;5.82;4.70;;;;;;;9.50;54.68;99326.63;1088254;54;20034;-80
2022/04/21 02:13:11;;;;;;;6.40;4.20;;;;;;;9.49;54.54;99333.81;1088232;54;20065;-80
2022/04/21 02:14:13;;;;;;;5.95;4.45;;;;;;;9.39;54.81;99333.06;1088095;54;20034;-80
2022/04/21 02:15:19;;;;;;;6.97;4.45;;;;;;;9.43;54.70;99337.13;1088310;54;20030;-80
2022/04/21 02:16:21;;;;;;;5.03;3.78;;;;;;;9.46;54.53;99326.13;1088248;54;20103;-81
2022/04/21 02:17:27;;;;;;;6.43;5.13;;;;;;;9.38;54.83;99331.38;1088292;54;20031;-80
2022/04/21 02:18:29;;;;;;;6.30;4.22;;;;;;;9.41;54.65;99322.22;1088291;54;20038;-80
2022/04/21 02:19:34;;;;;;;7.40;4.18;;;;;;;9.37;54.85;99324.38;1088243;54;20029;-80
2022/04/21 02:20:39;;;;;;;6.38;4.60;;;;;;;9.33;55.20;99325.69;1089332;46;20057;-80
2022/04/21 02:21:41;;;;;;;7.15;4.45;;;;;;;9.26;55.23;99324.66;1088167;54;20022;-79
2022/04/21 02:22:46;;;;;;;6.68;4.90;;;;;;;9.23;55.43;99324.94;1088221;54;20034;-78
2022/04/21 02:23:47;;;;;;;6.05;4.63;;;;;;;9.17;55.65;99329.88;1088640;46;20046;-79
2022/04/21 02:24:55;;;;;;;9.20;5.35;;;;;;;9.06;56.06;99324.81;1087838;54;20042;-80
2022/04/21 02:25:59;;;;;;;9.75;5.28;;;;;;;8.98;56.63;99328.22;1088277;54;20038;-80
2022/04/21 02:27:00;;;;;;;9.50;5.47;;;;;;;8.94;56.73;99320.69;1090129;39;20618;-79
2022/04/21 02:28:05;;;;;;;6.95;5.05;;;;;;;8.93;56.53;99327.00;1088265;54;20031;-82
2022/04/21 02:29:07;;;;;;;7.10;5.30;;;;;;;8.95;56.53;99323.19;1088413;54;20034;-80
2022/04/21 02:30:14;;;;;;;7.53;5.43;;;;;;;8.90;56.73;99315.63;1089858;46;20035;-81
2022/04/21 02:31:15;;;;;;;9.13;5.25;;;;;;;8.83;56.98;99325.25;1088338;54;20026;-80
2022/04/21 02:32:19;;;;;;;7.35;5.70;;;;;;;8.83;57.17;99319.91;1088342;54;20577;-80
2022/04/21 02:33:21;;;;;;;7.30;5.32;;;;;;;8.83;57.03;99319.91;1088387;54;20022;-81
2022/04/21 02:34:25;;;;;;;6.97;5.05;;;;;;;8.88;56.60;99320.28;1088347;54;20041;-82
2022/04/21 02:35:30;;;;;;;7.20;4.93;;;;;;;8.89;56.61;99319.28;1088383;54;20071;-82
2022/04/21 02:36:33;;;;;;;6.90;4.30;;;;;;;8.94;56.58;99318.84;1088425;54;20019;-80
2022/04/21 02:37:39;;;;;;;10.25;5.28;;;;;;;8.93;56.39;99316.34;1088431;54;20104;-83
2022/04/21 02:38:40;;;;;;;7.97;5.03;;;;;;;8.95;56.33;99311.69;1088485;54;20014;-81
2022/04/21 02:39:45;;;;;;;6.35;4.68;;;;;;;8.94;56.24;99318.00;1088381;54;20035;-82
2022/04/21 02:40:49;;;;;;;6.63;5.22;;;;;;;8.90;56.47;99312.97;1095779;39;20587;-81
2022/04/21 02:41:54;;;;;;;9.43;5.30;;;;;;;8.91;56.63;99311.16;1094221;39;20666;-81
2022/04/21 02:42:58;;;;;;;7.40;5.07;;;;;;;8.96;56.44;99306.19;1088311;54;20098;-81
2022/04/21 02:44:00;;;;;;;7.63;5.28;;;;;;;8.95;56.40;99303.69;1088390;54;20030;-81
2022/04/21 02:45:05;;;;;;;7.10;5.10;;;;;;;8.93;56.48;99301.16;1088386;54;20041;-82
2022/04/21 02:46:06;;;;;;;7.15;4.80;;;;;;;8.97;56.39;99309.72;1088316;54;20046;-80
2022/04/21 02:47:14;;;;;;;6.63;5.03;;;;;;;9.04;55.88;99302.78;1088275;54;20022;-80
2022/04/21 02:48:16;;;;;;;5.80;3.92;;;;;;;9.10;55.96;99304.00;1092315;39;20588;-82
2022/04/21 02:49:22;;;;;;;7.88;4.60;;;;;;;9.04;56.04;99308.13;1088388;54;20678;-81
2022/04/21 02:50:24;;;;;;;7.65;5.25;;;;;;;8.87;56.46;99304.44;1088380;54;20030;-82
2022/04/21 02:51:30;;;;;;;7.55;4.65;;;;;;;9.02;56.35;99305.56;1088293;54;20042;-81
2022/04/21 02:52:34;;;;;;;6.60;4.85;;;;;;;9.04;56.41;99305.44;1088382;54;20043;-83
2022/04/21 02:57:33;;;;;;;6.75;5.10;;;;;;;8.94;56.26;99300.19;1093138;31;20789;-82
2022/04/21 02:58:35;;;;;;;6.50;4.82;;;;;;;8.99;56.29;99295.25;1088063;54;20726;-81
2022/04/21 02:59:40;;;;;;;8.73;5.13;;;;;;;8.86;56.82;99292.09;1088281;54;20034;-83
2022/04/21 03:00:42;;;;;;;6.25;4.80;;;;;;;8.85;56.69;99293.94;1093185;39;20713;-81
2022/04/21 03:01:46;;;;;;;7.32;5.60;;;;;;;8.87;56.76;99302.63;1088185;54;20034;-79
2022/04/21 03:02:52;;;;;;;7.63;6.10;;;;;;;8.83;56.85;99306.59;1088185;54;20094;-81
2022/04/21 03:03:54;;;;;;;8.02;5.38;;;;;;;8.83;56.95;99300.44;1088184;54;20034;-82
2022/04/21 03:04:59;;;;;;;6.85;5.40;;;;;;;8.79;56.93;99313.19;1088248;54;20750;-81
2022/04/21 03:06:03;;;;;;;7.20;5.60;;;;;;;8.72;57.48;99305.00;1087993;54;20044;-81
2022/04/21 03:07:06;;;;;;;7.55;5.30;;;;;;;8.80;57.10;99308.72;1088224;54;20030;-82
2022/04/21 03:08:10;;;;;;;6.47;4.85;;;;;;;8.78;57.01;99311.53;1088151;54;20687;-80
2022/04/21 03:09:12;;;;;;;7.18;5.57;;;;;;;8.79;56.91;99317.69;1088156;54;20049;-80
2022/04/21 03:10:17;;;;;;;6.40;4.85;;;;;;;8.76;56.94;99313.50;1088244;54;20039;-80
2022/04/21 03:11:21;;;;;;;7.68;5.90;;;;;;;8.75;57.36;99311.84;1087921;54;20018;-78
2022/04/21 03:12:28;;;;;;;7.45;5.63;;;;;;;8.74;57.42;99315.50;1087913;54;20014;-78
2022/04/21 03:13:30;;;;;;;6.90;5.20;;;;;;;8.76;57.06;99308.19;1087803;54;20042;-78
2022/04/21 03:14:37;;;;;;;9.30;6.25;;;;;;;8.70;57.67;99316.75;1087451;54;20038;-79
2022/04/21 03:15:41;;;;;;;7.20;5.80;;;;;;;8.68;57.61;99316.09;1087866;54;20026;-79
2022/04/21 03:16:43;;;;;;;7.78;5.95;;;;;;;8.68;57.58;99310.78;1087942;54;20055;-78
2022/04/21 03:17:47;;;;;;;6.82;5.65;;;;;;;8.66;57.73;99315.41;1087972;54;20018;-79
2022/04/21 03:18:49;;;;;;;7.28;5.95;;;;;;;8.64;57.84;99312.91;1087999;54;20025;-80
2022/04/21 03:19:54;;;;;;;8.93;6.40;;;;;;;8.60;57.91;99319.50;1087943;54;20072;-79
2022/04/21 03:24:49;;;;;;;10.68;6.78;;;;;;;8.40;58.50;99305.44;1087993;54;20090;-79
2022/04/21 03:25:51;;;;;;;9.10;7.00;;;;;;;8.40;58.72;99316.09;1087944;54;20038;-79
2022/04/21 03:26:58;;;;;;;8.57;6.35;;;;;;;8.42;58.48;99314.09;1087948;54;20030;-78
2022/04/21 03:28:01;;;;;;;8.50;6.07;;;;;;;8.44;58.54;99314.78;1087895;54;20061;-78
2022/04/21 03:29:06;;;;;;;9.70;7.00;;;;;;;8.38;59.06;99310.91;1087930;54;20034;-78
2022/04/21 03:30:11;;;;;;;7.95;6.47;;;;;;;8.37;58.88;99311.06;1087706;54;20035;-78
2022/04/21 03:31:13;;;;;;;8.65;7.32;;;;;;;8.21;59.39;99304.56;1087313;54;20104;-78
2022/04/21 03:32:18;;;;;;;10.57;7.78;;;;;;;8.18;59.54;99315.50;1087645;54;20030;-78
2022/04/21 03:33:20;;;;;;;8.13;6.78;;;;;;;8.22;59.01;99308.88;1089469;46;20058;-79
2022/04/21 03:34:25;;;;;;;14.80;7.20;;;;;;;8.17;59.46;99316.47;1087942;54;20041;-79
2022/04/21 03:35:27;;;;;;;8.10;7.05;;;;;;;8.18;59.70;99310.16;1087998;54;20026;-78
2022/04/21 03:36:31;;;;;;;9.60;7.55;;;;;;;8.20;59.67;99313.53;1091670;46;20034;-77
2022/04/21 03:37:36;;;;;;;8.65;7.15;;;;;;;8.21;59.60;99309.03;1091394;46;20038;-78
2022/04/21 03:38:39;;;;;;;10.55;7.43;;;;;;;8.16;59.71;99312.13;1088081;54;20030;-78
2022/04/21 03:39:44;;;;;;;9.05;6.43;;;;;;;8.17;59.48;99319.13;1088152;54;20038;-77
2022/04/21 03:40:45;;;;;;;9.27;6.72;;;;;;;8.18;59.64;99310.16;1088125;54;20019;-80
2022/04/21 03:41:53;;;;;;;8.75;7.32;;;;;;;8.16;59.86;99317.47;1088176;54;20702;-79
2022/04/21 03:42:57;;;;;;;8.70;7.53;;;;;;;8.06;60.39;99319.31;1088210;54;20038;-79
2022/04/21 03:44:02;;;;;;;9.30;7.57;;;;;;;8.07;60.20;99318.34;1088254;54;20037;-79
2022/04/21 03:45:07;;;;;;;10.27;7.45;;;;;;;8.14;59.97;99316.75;1088164;54;20051;-78
2022/04/21 03:46:09;;;;;;;9.13;7.90;;;;;;;8.10;60.31;99312.72;1088193;54;20030;-77
2022/04/21 03:47:14;;;;;;;10.10;7.72;;;;;;;8.02;60.44;99310.78;1087847;54;20039;-78
2022/04/21 03:48:16;;;;;;;11.10;7.63;;;;;;;7.95;60.92;99305.22;1087950;54;20128;-79
2022/04/21 03:49:20;;;;;;;10.10;8.05;;;;;;;7.99;60.58;99311.06;1088263;54;20030;-80
2022/04/21 03:50:23;;;;;;;12.10;7.82;;;;;;;8.01;60.42;99303.78;1088334;54;20018;-79
2022/04/21 03:51:28;;;;;;;8.40;6.63;;;;;;;8.03;60.58;99306.31;1088597;46;20081;-80
2022/04/21 03:52:30;;;;;;;10.65;7.85;;;;;;;8.07;59.99;99300.56;1098331;46;20041;-79
2022/04/21 03:53:35;;;;;;;11.70;8.20;;;;;;;8.07;59.93;99308.53;1091896;39;20627;-77
2022/04/21 03:54:37;;;;;;;8.43;7.30;;;;;;;8.08;59.98;99307.53;1088383;54;20014;-79
2022/04/21 03:55:42;;;;;;;7.97;6.28;;;;;;;8.17;59.88;99310.31;1088379;54;20026;-78
2022/04/21 03:56:44;;;;;;;9.27;7.07;;;;;;;8.12;59.87;99310.75;1088255;54;20106;-79
2022/04/21 03:57:51;;;;;;;9.02;7.07;;;;;;;8.10;59.93;99307.41;1088256;54;20027;-78
2022/04/21 03:58:56;;;;;;;9.70;7.60;;;;;;;8.02;60.32;99299.31;1088552;46;20054;-78
2022/04/21 04:00:01;;;;;;;11.18;7.47;;;;;;;7.98;60.67;99301.44;1090024;46;20042;-79
2022/04/21 04:01:03;;;;;;;9.05;7.00;;;;;;;8.05;60.12;99309.66;1088240;54;20017;-80
2022/04/21 04:02:08;;;;;;;8.90;8.00;;;;;;;8.03;60.38;99308.97;1088125;54;20042;-79
2022/04/21 04:04:15;;;;;;;10.82;7.60;;;;;;;8.00;60.45;99306.59;1085023;54;20038;-80
2022/04/21 04:05:17;;;;;;;9.02;8.05;;;;;;;7.88;61.12;99311.28;1085957;54;20042;-80
2022/04/21 04:11:28;;;;;;;10.23;7.50;;;;;;;7.94;60.83;99305.38;1085699;54;20049;-79
2022/04/21 04:12:31;;;;;;;10.10;7.57;;;;;;;7.92;60.78;99304.66;1085908;54;20042;-79
2022/04/21 04:13:35;;;;;;;9.00;7.15;;;;;;;7.95;60.31;99294.56;1085996;54;20174;-79
2022/04/21 04:14:40;;;;;;;10.20;7.85;;;;;;;7.90;60.90;99296.84;1085792;54;20043;-79
2022/04/21 04:15:47;;;;;;;9.85;7.43;;;;;;;7.95;60.84;99301.72;1086009;54;20054;-79
2022/04/21 04:16:49;;;;;;;9.85;7.38;;;;;;;8.02;60.25;99296.66;1085882;54;20059;-79
2022/04/21 04:17:53;;;;;;;10.00;7.25;;;;;;;8.02;60.34;99294.00;1085592;54;20072;-79
2022/04/21 04:18:55;;;;;;;9.20;7.50;;;;;;;7.93;60.77;99296.56;1085144;54;20082;-79
2022/04/21 04:20:00;;;;;;;13.10;7.80;;;;;;;7.94;61.03;99300.88;1085338;54;20045;-78
2022/04/21 04:21:02;;;;;;;8.70;7.63;;;;;;;7.94;60.65;99292.06;1085308;54;20042;-79
2022/04/21 04:22:06;;;;;;;9.35;7.70;;;;;;;7.92;61.01;99302.84;1085388;54;20038;-80
2022/04/21 04:23:08;;;;;;;10.00;7.72;;;;;;;7.88;61.14;99295.31;1085047;54;20038;-79
2022/04/21 04:24:12;;;;;;;9.40;7.63;;;;;;;7.91;61.18;99301.19;1084849;54;20038;-79
2022/04/21 04:25:15;;;;;;;10.15;7.43;;;;;;;7.89;61.14;99296.97;1084948;54;20042;-78
2022/04/21 04:26:19;;;;;;;9.07;7.72;;;;;;;7.85;61.33;99299.06;1084771;54;20045;-79
2022/04/21 04:27:22;;;;;;;8.35;7.15;;;;;;;7.91;60.75;99301.19;1085723;46;20038;-79
2022/04/21 04:28:26;;;;;;;8.75;6.80;;;;;;;7.96;60.83;99295.41;1085817;54;20125;-79
2022/04/21 04:29:27;;;;;;;10.50;7.57;;;;;;;7.91;60.86;99300.31;1086095;54;20034;-78
2022/04/21 04:30:34;;;;;;;8.73;7.10;;;;;;;8.02;60.83;99299.31;1086305;54;20035;-80
2022/04/21 04:31:38;;;;;;;12.10;7.63;;;;;;;7.97;60.90;99292.59;1086391;54;20046;-78
2022/04/21 04:32:43;;;;;;;8.32;6.70;;;;;;;8.02;60.58;99294.00;1086188;54;20026;-79
2022/04/21 04:33:45;;;;;;;9.07;6.68;;;;;;;8.05;60.58;99296.34;1086656;54;20094;-80
2022/04/21 04:34:49;;;;;;;10.43;7.03;;;;;;;8.12;60.46;99292.13;1088389;39;20445;-79
2022/04/21 04:35:51;;;;;;;7.65;6.30;;;;;;;8.16;60.37;99290.84;1087068;54;20042;-80
2022/04/21 04:36:55;;;;;;;11.27;6.95;;;;;;;8.19;60.29;99295.00;1087639;39;20641;-79
2022/04/21 04:37:56;;;;;;;8.63;6.97;;;;;;;8.18;59.98;99296.00;1086712;54;20046;-79
2022/04/21 04:39:10;;;;;;;9.38;7.07;;;;;;;8.19;60.34;99303.00;1086447;54;20046;-78
2022/04/21 04:40:13;;;;;;;9.40;6.90;;;;;;;8.19;60.10;99295.00;1087574;54;20101;-80
2022/04/21 04:42:34;;;;;;;9.50;7.07;;;;;;;8.16;60.02;99296.16;1087872;54;20025;-80
2022/04/21 04:43:36;;;;;;;10.82;7.40;;;;;;;8.17;60.25;99294.34;1088196;47;20151;-79
2022/04/21 04:44:41;;;;;;;9.98;6.85;;;;;;;8.25;59.87;99297.09;1088028;54;20058;-80
2022/04/21 04:47:02;;;;;;;8.77;6.30;;;;;;;8.26;59.77;99293.47;1088325;46;20026;-79
2022/04/21 04:48:04;;;;;;;10.43;6.75;;;;;;;8.28;59.99;99288.81;1088650;47;20065;-80
2022/04/21 04:49:10;;;;;;;9.95;6.40;;;;;;;8.24;60.20;99285.59;1087674;54;20042;-80
2022/04/21 04:50:14;;;;;;;11.80;7.07;;;;;;;8.14;60.37;99295.47;1086570;54;20047;-79
2022/04/21 04:51:16;;;;;;;9.35;6.63;;;;;;;8.19;60.33;99297.69;1086278;54;20036;-79
2022/04/21 04:52:20;;;;;;;9.02;6.57;;;;;;;8.22;60.27;99300.88;1086258;54;20536;-80
2022/04/21 04:53:23;;;;;;;10.13;7.47;;;;;;;8.22;60.33;99294.72;1086203;39;20462;-79
2022/04/21 04:54:29;;;;;;;9.35;7.00;;;;;;;8.20;60.34;99302.03;1087141;39;20551;-79
2022/04/21 04:55:30;;;;;;;10.77;6.75;;;;;;;8.18;60.53;99304.84;1086538;54;20034;-79
2022/04/21 04:56:37;;;;;;;10.32;6.80;;;;;;;8.21;60.45;99307.22;1085788;54;20038;-78
2022/04/21 04:57:39;;;;;;;8.88;6.55;;;;;;;8.20;60.23;99308.19;1085598;54;20034;-80
2022/04/21 04:58:44;;;;;;;8.07;6.18;;;;;;;8.20;60.37;99307.34;1085463;54;20031;-80
2022/04/21 04:59:48;;;;;;;10.13;6.72;;;;;;;8.09;60.95;99305.72;1085742;54;20031;-79
2022/04/21 05:00:53;;;;;;;12.57;8.00;;;;;;;7.97;61.50;99310.41;1085886;47;20054;-79
2022/04/21 05:01:57;;;;;;;13.18;7.95;;;;;;;8.00;61.39;99304.78;1085687;54;20042;-79
2022/04/21 05:02:58;;;;;;;12.63;8.30;;;;;;;8.00;61.17;99307.44;1085670;54;20026;-79
2022/04/21 05:04:04;;;;;;;9.75;7.88;;;;;;;7.93;61.43;99304.53;1085407;54;20038;-79
2022/04/21 05:05:07;;;;;;;12.13;7.70;;;;;;;8.03;60.94;99306.31;1085147;54;22630;-78
2022/04/21 05:06:11;;;;;;;9.82;6.63;;;;;;;8.05;61.03;99301.66;1085405;54;20042;-80
2022/04/21 05:07:17;;;;;;;11.60;7.20;;;;;;;8.15;60.58;99307.78;1085663;54;20069;-79
2022/04/21 05:08:18;;;;;;;8.55;6.57;;;;;;;8.15;60.79;99299.81;1086745;54;20074;-79
2022/04/21 05:09:25;;;;;;;8.77;6.60;;;;;;;8.20;60.44;99308.19;1086804;54;20038;-79
2022/04/21 05:10:28;;;;;;;10.25;6.32;;;;;;;8.24;60.40;99306.09;1086633;54;20053;-79
2022/04/21 05:11:33;;;;;;;12.23;7.03;;;;;;;8.21;60.58;99301.91;1086552;54;20042;-79
2022/04/21 05:12:35;;;;;;;9.18;5.68;;;;;;;8.26;60.33;99312.94;1086664;54;20050;-79
2022/04/21 05:13:41;;;;;;;7.75;6.20;;;;;;;8.33;59.95;99312.31;1086457;54;20026;-78
2022/04/21 05:14:43;;;;;;;9.00;6.60;;;;;;;8.32;60.19;99297.34;1085773;54;20042;-80
2022/04/21 05:15:48;;;;;;;8.55;5.90;;;;;;;8.33;60.27;99299.88;1086386;39;20545;-81
2022/04/21 05:16:52;;;;;;;12.52;8.13;;;;;;;8.19;60.90;99305.66;1086300;54;20042;-79
2022/04/21 05:17:57;;;;;;;10.57;7.60;;;;;;;8.18;60.75;99304.84;1085894;54;20034;-78
2022/04/21 05:18:59;;;;;;;8.68;6.53;;;;;;;8.26;60.64;99304.13;1086038;54;20057;-79
2022/04/21 05:20:04;;;;;;;8.90;6.75;;;;;;;8.32;60.50;99315.97;1085936;54;20034;-79
2022/04/21 05:21:06;;;;;;;9.35;6.57;;;;;;;8.31;60.16;99309.81;1086123;39;20489;-79
2022/04/21 05:22:15;;;;;;;11.30;6.68;;;;;;;8.35;60.20;99300.56;1085688;54;20066;-79
2022/04/21 05:23:20;;;;;;;8.48;6.25;;;;;;;8.36;60.11;99301.38;1085425;54;20041;-78
2022/04/21 05:24:26;;;;;;;10.15;6.40;;;;;;;8.38;60.13;99304.75;1085813;54;20046;-79
2022/04/21 05:25:31;;;;;;;7.95;5.93;;;;;;;8.43;59.98;99303.31;1086111;54;20038;-79
2022/04/21 05:26:37;;;;;;;8.30;5.97;;;;;;;8.48;59.77;99291.38;1085658;54;20069;-79